sensor_id;sensor_type;location;lat;lon;timestamp;P1;durP1;ratioP1;P2;durP2;ratioP2
22705;SDS011;11520;51.198;4.468;2023-06-10T00:01:59;11.63;;;7.00;;
22705;SDS011;11520;51.198;4.468;2023-06-10T00:04:25;10.02;;;6.75;;
22705;SDS011;11520;51.198;4.468;2023-06-10T00:06:51;16.52;;;7.40;;
22705;SDS011;11520;51.198;4.468;2023-06-10T00:09:16;10.13;;;7.22;;
22705;SDS011;11520;51.198;4.468;2023-06-10T00:11:43;9.90;;;7.00;;
22705;SDS011;11520;51.198;4.468;2023-06-10T00:14:09;11.38;;;6.68;;
22705;SDS011;11520;51.198;4.468;2023-06-10T00:16:35;8.85;;;6.28;;
22705;SDS011;11520;51.198;4.468;2023-06-10T00:19:01;7.28;;;6.57;;
22705;SDS011;11520;51.198;4.468;2023-06-10T00:21:29;9.82;;;6.85;;
22705;SDS011;11520;51.198;4.468;2023-06-10T00:24:05;9.52;;;7.40;;
22705;SDS011;11520;51.198;4.468;2023-06-10T00:26:41;8.98;;;7.45;;
22705;SDS011;11520;51.198;4.468;2023-06-10T00:29:07;11.00;;;7.30;;
22705;SDS011;11520;51.198;4.468;2023-06-10T00:31:37;9.20;;;6.82;;
22705;SDS011;11520;51.198;4.468;2023-06-10T00:34:03;11.38;;;6.88;;
22705;SDS011;11520;51.198;4.468;2023-06-10T00:36:29;8.25;;;6.97;;
22705;SDS011;11520;51.198;4.468;2023-06-10T00:38:55;11.68;;;7.95;;
22705;SDS011;11520;51.198;4.468;2023-06-10T00:41:21;9.85;;;7.63;;
22705;SDS011;11520;51.198;4.468;2023-06-10T00:43:46;11.82;;;6.97;;
22705;SDS011;11520;51.198;4.468;2023-06-10T00:46:12;12.95;;;7.50;;
22705;SDS011;11520;51.198;4.468;2023-06-10T00:48:39;11.65;;;7.45;;
22705;SDS011;11520;51.198;4.468;2023-06-10T00:51:06;8.82;;;7.75;;
22705;SDS011;11520;51.198;4.468;2023-06-10T00:53:34;7.82;;;6.80;;
22705;SDS011;11520;51.198;4.468;2023-06-10T00:56:01;12.07;;;7.40;;
22705;SDS011;11520;51.198;4.468;2023-06-10T00:58:27;8.57;;;7.63;;
22705;SDS011;11520;51.198;4.468;2023-06-10T01:00:53;9.00;;;6.90;;
22705;SDS011;11520;51.198;4.468;2023-06-10T01:03:18;8.98;;;7.95;;
22705;SDS011;11520;51.198;4.468;2023-06-10T01:05:44;11.00;;;7.90;;
22705;SDS011;11520;51.198;4.468;2023-06-10T01:10:57;11.90;;;7.65;;
22705;SDS011;11520;51.198;4.468;2023-06-10T01:13:26;10.07;;;7.53;;
22705;SDS011;11520;51.198;4.468;2023-06-10T01:15:57;9.73;;;7.47;;
22705;SDS011;11520;51.198;4.468;2023-06-10T01:18:29;10.98;;;7.43;;
22705;SDS011;11520;51.198;4.468;2023-06-10T01:20:55;9.40;;;7.90;;
22705;SDS011;11520;51.198;4.468;2023-06-10T01:23:22;9.95;;;7.47;;
22705;SDS011;11520;51.198;4.468;2023-06-10T01:25:53;11.00;;;7.88;;
22705;SDS011;11520;51.198;4.468;2023-06-10T01:28:32;10.82;;;8.05;;
22705;SDS011;11520;51.198;4.468;2023-06-10T01:33:33;10.55;;;7.53;;
22705;SDS011;11520;51.198;4.468;2023-06-10T01:36:04;13.43;;;8.00;;
22705;SDS011;11520;51.198;4.468;2023-06-10T01:38:31;11.55;;;7.80;;
22705;SDS011;11520;51.198;4.468;2023-06-10T01:41:00;14.50;;;7.72;;
22705;SDS011;11520;51.198;4.468;2023-06-10T01:43:26;9.55;;;8.45;;
22705;SDS011;11520;51.198;4.468;2023-06-10T01:45:52;13.57;;;7.97;;
22705;SDS011;11520;51.198;4.468;2023-06-10T01:48:17;10.88;;;8.30;;
22705;SDS011;11520;51.198;4.468;2023-06-10T01:50:43;10.02;;;8.30;;
22705;SDS011;11520;51.198;4.468;2023-06-10T01:53:09;10.90;;;7.90;;
22705;SDS011;11520;51.198;4.468;2023-06-10T01:55:34;10.90;;;8.15;;
22705;SDS011;11520;51.198;4.468;2023-06-10T01:58:00;13.10;;;7.68;;
22705;SDS011;11520;51.198;4.468;2023-06-10T02:00:25;14.50;;;8.50;;
22705;SDS011;11520;51.198;4.468;2023-06-10T02:02:51;12.90;;;8.13;;
22705;SDS011;11520;51.198;4.468;2023-06-10T02:05:16;10.88;;;8.02;;
22705;SDS011;11520;51.198;4.468;2023-06-10T02:07:42;11.65;;;8.65;;
22705;SDS011;11520;51.198;4.468;2023-06-10T02:10:08;11.20;;;7.68;;
22705;SDS011;11520;51.198;4.468;2023-06-10T02:12:34;10.70;;;8.00;;
22705;SDS011;11520;51.198;4.468;2023-06-10T02:14:59;9.57;;;8.57;;
22705;SDS011;11520;51.198;4.468;2023-06-10T02:17:25;12.05;;;8.57;;
22705;SDS011;11520;51.198;4.468;2023-06-10T02:19:52;13.25;;;8.52;;
22705;SDS011;11520;51.198;4.468;2023-06-10T02:22:20;10.60;;;8.48;;
22705;SDS011;11520;51.198;4.468;2023-06-10T02:24:47;14.50;;;8.60;;
22705;SDS011;11520;51.198;4.468;2023-06-10T02:27:14;13.50;;;9.30;;
22705;SDS011;11520;51.198;4.468;2023-06-10T02:29:40;17.90;;;8.85;;
22705;SDS011;11520;51.198;4.468;2023-06-10T02:32:06;11.10;;;8.45;;
22705;SDS011;11520;51.198;4.468;2023-06-10T02:34:32;11.88;;;8.70;;
22705;SDS011;11520;51.198;4.468;2023-06-10T02:36:58;11.05;;;8.65;;
22705;SDS011;11520;51.198;4.468;2023-06-10T02:39:24;16.50;;;8.63;;
22705;SDS011;11520;51.198;4.468;2023-06-10T02:41:50;11.10;;;8.85;;
22705;SDS011;11520;51.198;4.468;2023-06-10T02:44:17;10.40;;;8.30;;
22705;SDS011;11520;51.198;4.468;2023-06-10T02:46:43;11.60;;;8.77;;
22705;SDS011;11520;51.198;4.468;2023-06-10T02:49:09;12.77;;;8.55;;
22705;SDS011;11520;51.198;4.468;2023-06-10T02:51:35;11.95;;;9.02;;
22705;SDS011;11520;51.198;4.468;2023-06-10T02:54:01;12.50;;;9.65;;
22705;SDS011;11520;51.198;4.468;2023-06-10T02:56:27;11.30;;;9.85;;
22705;SDS011;11520;51.198;4.468;2023-06-10T02:58:53;10.98;;;8.68;;
22705;SDS011;11520;51.198;4.468;2023-06-10T03:01:18;10.32;;;8.93;;
22705;SDS011;11520;51.198;4.468;2023-06-10T03:03:44;15.13;;;8.90;;
22705;SDS011;11520;51.198;4.468;2023-06-10T03:06:11;13.23;;;9.35;;
22705;SDS011;11520;51.198;4.468;2023-06-10T03:08:37;10.32;;;9.02;;
22705;SDS011;11520;51.198;4.468;2023-06-10T03:11:04;13.45;;;9.90;;
22705;SDS011;11520;51.198;4.468;2023-06-10T03:13:29;11.77;;;9.15;;
22705;SDS011;11520;51.198;4.468;2023-06-10T03:15:55;10.48;;;9.38;;
22705;SDS011;11520;51.198;4.468;2023-06-10T03:18:21;14.02;;;9.73;;
22705;SDS011;11520;51.198;4.468;2023-06-10T03:20:51;11.82;;;9.55;;
22705;SDS011;11520;51.198;4.468;2023-06-10T03:23:16;12.52;;;9.27;;
22705;SDS011;11520;51.198;4.468;2023-06-10T03:25:43;14.25;;;10.40;;
22705;SDS011;11520;51.198;4.468;2023-06-10T03:28:09;11.18;;;9.10;;
22705;SDS011;11520;51.198;4.468;2023-06-10T03:30:35;13.82;;;9.20;;
22705;SDS011;11520;51.198;4.468;2023-06-10T03:33:00;11.15;;;9.75;;
22705;SDS011;11520;51.198;4.468;2023-06-10T03:35:26;9.90;;;8.90;;
22705;SDS011;11520;51.198;4.468;2023-06-10T03:37:52;15.55;;;9.65;;
22705;SDS011;11520;51.198;4.468;2023-06-10T03:40:17;12.75;;;8.88;;
22705;SDS011;11520;51.198;4.468;2023-06-10T03:42:43;13.90;;;9.43;;
22705;SDS011;11520;51.198;4.468;2023-06-10T03:45:09;13.80;;;10.00;;
22705;SDS011;11520;51.198;4.468;2023-06-10T03:47:36;13.93;;;10.27;;
22705;SDS011;11520;51.198;4.468;2023-06-10T03:50:02;13.73;;;9.75;;
22705;SDS011;11520;51.198;4.468;2023-06-10T03:52:29;11.35;;;9.48;;
22705;SDS011;11520;51.198;4.468;2023-06-10T03:54:55;10.98;;;9.48;;
22705;SDS011;11520;51.198;4.468;2023-06-10T03:57:21;15.52;;;9.80;;
22705;SDS011;11520;51.198;4.468;2023-06-10T03:59:46;13.55;;;9.13;;
22705;SDS011;11520;51.198;4.468;2023-06-10T04:02:12;14.10;;;9.65;;
22705;SDS011;11520;51.198;4.468;2023-06-10T04:04:37;14.95;;;9.05;;
22705;SDS011;11520;51.198;4.468;2023-06-10T04:07:03;13.27;;;9.13;;
22705;SDS011;11520;51.198;4.468;2023-06-10T04:09:30;12.23;;;9.88;;
22705;SDS011;11520;51.198;4.468;2023-06-10T04:11:55;12.90;;;9.48;;
22705;SDS011;11520;51.198;4.468;2023-06-10T04:14:21;14.45;;;9.93;;
22705;SDS011;11520;51.198;4.468;2023-06-10T04:16:47;12.00;;;9.45;;
22705;SDS011;11520;51.198;4.468;2023-06-10T04:19:12;13.55;;;9.88;;
22705;SDS011;11520;51.198;4.468;2023-06-10T04:21:38;12.73;;;9.70;;
22705;SDS011;11520;51.198;4.468;2023-06-10T04:24:03;12.57;;;9.82;;
22705;SDS011;11520;51.198;4.468;2023-06-10T04:26:29;11.73;;;9.05;;
22705;SDS011;11520;51.198;4.468;2023-06-10T04:28:55;13.07;;;10.02;;
22705;SDS011;11520;51.198;4.468;2023-06-10T04:31:20;13.20;;;9.35;;
22705;SDS011;11520;51.198;4.468;2023-06-10T04:33:46;15.07;;;9.40;;
22705;SDS011;11520;51.198;4.468;2023-06-10T04:36:11;17.45;;;10.05;;
22705;SDS011;11520;51.198;4.468;2023-06-10T04:38:37;11.02;;;9.55;;
22705;SDS011;11520;51.198;4.468;2023-06-10T04:41:02;12.50;;;9.65;;
22705;SDS011;11520;51.198;4.468;2023-06-10T04:43:28;10.57;;;9.23;;
22705;SDS011;11520;51.198;4.468;2023-06-10T04:45:55;12.10;;;9.32;;
22705;SDS011;11520;51.198;4.468;2023-06-10T04:48:21;11.68;;;9.27;;
22705;SDS011;11520;51.198;4.468;2023-06-10T04:50:48;11.95;;;9.13;;
22705;SDS011;11520;51.198;4.468;2023-06-10T04:53:15;14.77;;;8.68;;
22705;SDS011;11520;51.198;4.468;2023-06-10T04:55:41;10.52;;;8.38;;
22705;SDS011;11520;51.198;4.468;2023-06-10T04:58:07;9.38;;;7.78;;
22705;SDS011;11520;51.198;4.468;2023-06-10T05:00:32;11.55;;;9.15;;
22705;SDS011;11520;51.198;4.468;2023-06-10T05:02:58;11.02;;;8.63;;
22705;SDS011;11520;51.198;4.468;2023-06-10T05:05:24;10.23;;;8.48;;
22705;SDS011;11520;51.198;4.468;2023-06-10T05:07:49;14.13;;;8.50;;
22705;SDS011;11520;51.198;4.468;2023-06-10T05:10:15;12.13;;;8.68;;
22705;SDS011;11520;51.198;4.468;2023-06-10T05:12:40;9.68;;;8.50;;
22705;SDS011;11520;51.198;4.468;2023-06-10T05:15:07;12.50;;;8.18;;
22705;SDS011;11520;51.198;4.468;2023-06-10T05:17:33;14.00;;;9.20;;
22705;SDS011;11520;51.198;4.468;2023-06-10T05:20:00;10.27;;;8.07;;
22705;SDS011;11520;51.198;4.468;2023-06-10T05:22:26;12.30;;;8.80;;
22705;SDS011;11520;51.198;4.468;2023-06-10T05:24:52;11.75;;;8.48;;
22705;SDS011;11520;51.198;4.468;2023-06-10T05:27:18;12.60;;;8.60;;
22705;SDS011;11520;51.198;4.468;2023-06-10T05:29:44;11.57;;;8.20;;
22705;SDS011;11520;51.198;4.468;2023-06-10T05:32:10;8.95;;;8.02;;
22705;SDS011;11520;51.198;4.468;2023-06-10T05:34:36;11.77;;;8.88;;
22705;SDS011;11520;51.198;4.468;2023-06-10T05:37:02;10.00;;;8.15;;
22705;SDS011;11520;51.198;4.468;2023-06-10T05:39:28;10.73;;;9.00;;
22705;SDS011;11520;51.198;4.468;2023-06-10T05:41:54;11.48;;;8.65;;
22705;SDS011;11520;51.198;4.468;2023-06-10T05:44:20;11.98;;;8.00;;
22705;SDS011;11520;51.198;4.468;2023-06-10T05:46:45;12.40;;;8.07;;
22705;SDS011;11520;51.198;4.468;2023-06-10T05:49:11;9.18;;;7.22;;
22705;SDS011;11520;51.198;4.468;2023-06-10T05:51:36;12.63;;;7.82;;
22705;SDS011;11520;51.198;4.468;2023-06-10T05:54:02;12.32;;;8.32;;
22705;SDS011;11520;51.198;4.468;2023-06-10T05:56:28;10.40;;;8.25;;
22705;SDS011;11520;51.198;4.468;2023-06-10T05:58:54;11.00;;;9.07;;
22705;SDS011;11520;51.198;4.468;2023-06-10T06:01:19;11.10;;;7.55;;
22705;SDS011;11520;51.198;4.468;2023-06-10T06:03:45;13.48;;;8.50;;
22705;SDS011;11520;51.198;4.468;2023-06-10T06:06:10;11.07;;;8.15;;
22705;SDS011;11520;51.198;4.468;2023-06-10T06:08:36;10.55;;;7.35;;
22705;SDS011;11520;51.198;4.468;2023-06-10T06:11:02;12.85;;;8.15;;
22705;SDS011;11520;51.198;4.468;2023-06-10T06:13:27;9.43;;;8.02;;
22705;SDS011;11520;51.198;4.468;2023-06-10T06:15:53;10.93;;;8.63;;
22705;SDS011;11520;51.198;4.468;2023-06-10T06:18:18;9.70;;;7.53;;
22705;SDS011;11520;51.198;4.468;2023-06-10T06:20:45;13.20;;;7.75;;
22705;SDS011;11520;51.198;4.468;2023-06-10T06:23:11;8.82;;;7.90;;
22705;SDS011;11520;51.198;4.468;2023-06-10T06:25:36;8.60;;;7.00;;
22705;SDS011;11520;51.198;4.468;2023-06-10T06:28:04;10.27;;;7.13;;
22705;SDS011;11520;51.198;4.468;2023-06-10T06:30:34;7.90;;;7.20;;
22705;SDS011;11520;51.198;4.468;2023-06-10T06:33:00;9.10;;;7.38;;
22705;SDS011;11520;51.198;4.468;2023-06-10T06:35:26;14.07;;;7.80;;
22705;SDS011;11520;51.198;4.468;2023-06-10T06:37:51;9.77;;;7.00;;
22705;SDS011;11520;51.198;4.468;2023-06-10T06:40:17;9.82;;;7.35;;
22705;SDS011;11520;51.198;4.468;2023-06-10T06:42:42;8.00;;;6.63;;
22705;SDS011;11520;51.198;4.468;2023-06-10T06:45:08;7.40;;;6.43;;
22705;SDS011;11520;51.198;4.468;2023-06-10T06:47:34;7.32;;;6.55;;
22705;SDS011;11520;51.198;4.468;2023-06-10T06:50:00;11.43;;;6.57;;
22705;SDS011;11520;51.198;4.468;2023-06-10T06:52:25;8.85;;;6.63;;
22705;SDS011;11520;51.198;4.468;2023-06-10T06:54:51;12.95;;;8.07;;
22705;SDS011;11520;51.198;4.468;2023-06-10T06:57:16;7.28;;;6.57;;
22705;SDS011;11520;51.198;4.468;2023-06-10T06:59:42;8.23;;;6.18;;
22705;SDS011;11520;51.198;4.468;2023-06-10T07:02:07;8.55;;;6.47;;
22705;SDS011;11520;51.198;4.468;2023-06-10T07:04:33;14.55;;;5.90;;
22705;SDS011;11520;51.198;4.468;2023-06-10T07:06:58;10.98;;;5.95;;
22705;SDS011;11520;51.198;4.468;2023-06-10T07:09:24;8.10;;;5.78;;
22705;SDS011;11520;51.198;4.468;2023-06-10T07:11:50;9.55;;;6.30;;
22705;SDS011;11520;51.198;4.468;2023-06-10T07:14:15;8.23;;;6.05;;
22705;SDS011;11520;51.198;4.468;2023-06-10T07:16:41;7.40;;;6.20;;
22705;SDS011;11520;51.198;4.468;2023-06-10T07:19:06;8.43;;;6.22;;
22705;SDS011;11520;51.198;4.468;2023-06-10T07:21:32;14.32;;;7.20;;
22705;SDS011;11520;51.198;4.468;2023-06-10T07:23:59;8.55;;;6.47;;
22705;SDS011;11520;51.198;4.468;2023-06-10T07:26:24;7.82;;;6.35;;
22705;SDS011;11520;51.198;4.468;2023-06-10T07:28:50;20.73;;;7.15;;
22705;SDS011;11520;51.198;4.468;2023-06-10T07:31:16;8.55;;;6.53;;
22705;SDS011;11520;51.198;4.468;2023-06-10T07:33:42;12.93;;;7.13;;
22705;SDS011;11520;51.198;4.468;2023-06-10T07:36:08;7.60;;;6.43;;
22705;SDS011;11520;51.198;4.468;2023-06-10T07:38:34;7.85;;;5.97;;
22705;SDS011;11520;51.198;4.468;2023-06-10T07:41:00;8.50;;;5.72;;
22705;SDS011;11520;51.198;4.468;2023-06-10T07:43:26;9.75;;;6.45;;
22705;SDS011;11520;51.198;4.468;2023-06-10T07:45:52;6.85;;;6.13;;
22705;SDS011;11520;51.198;4.468;2023-06-10T07:48:17;12.63;;;6.53;;
22705;SDS011;11520;51.198;4.468;2023-06-10T07:50:43;7.68;;;6.35;;
22705;SDS011;11520;51.198;4.468;2023-06-10T07:53:09;7.40;;;6.25;;
22705;SDS011;11520;51.198;4.468;2023-06-10T07:55:34;6.18;;;5.57;;
22705;SDS011;11520;51.198;4.468;2023-06-10T07:58:00;8.18;;;6.18;;
22705;SDS011;11520;51.198;4.468;2023-06-10T08:00:25;9.10;;;6.32;;
22705;SDS011;11520;51.198;4.468;2023-06-10T08:02:51;8.77;;;6.20;;
22705;SDS011;11520;51.198;4.468;2023-06-10T08:05:17;10.82;;;6.72;;
22705;SDS011;11520;51.198;4.468;2023-06-10T08:07:43;10.63;;;6.07;;
22705;SDS011;11520;51.198;4.468;2023-06-10T08:10:09;10.20;;;6.00;;
22705;SDS011;11520;51.198;4.468;2023-06-10T08:12:35;10.40;;;6.55;;
22705;SDS011;11520;51.198;4.468;2023-06-10T08:15:01;8.32;;;6.30;;
22705;SDS011;11520;51.198;4.468;2023-06-10T08:17:28;7.90;;;5.78;;
22705;SDS011;11520;51.198;4.468;2023-06-10T08:19:55;10.40;;;6.43;;
22705;SDS011;11520;51.198;4.468;2023-06-10T08:22:20;10.38;;;6.07;;
22705;SDS011;11520;51.198;4.468;2023-06-10T08:24:46;7.30;;;5.57;;
22705;SDS011;11520;51.198;4.468;2023-06-10T08:27:11;6.05;;;5.55;;
22705;SDS011;11520;51.198;4.468;2023-06-10T08:29:37;8.85;;;5.40;;
22705;SDS011;11520;51.198;4.468;2023-06-10T08:32:03;18.48;;;6.05;;
22705;SDS011;11520;51.198;4.468;2023-06-10T08:34:29;9.27;;;6.40;;
22705;SDS011;11520;51.198;4.468;2023-06-10T08:36:54;7.88;;;5.15;;
22705;SDS011;11520;51.198;4.468;2023-06-10T08:39:20;7.20;;;4.70;;
22705;SDS011;11520;51.198;4.468;2023-06-10T08:41:51;8.82;;;4.82;;
22705;SDS011;11520;51.198;4.468;2023-06-10T08:44:28;8.13;;;4.72;;
22705;SDS011;11520;51.198;4.468;2023-06-10T08:47:01;5.82;;;5.05;;
22705;SDS011;11520;51.198;4.468;2023-06-10T08:49:30;7.45;;;5.20;;
22705;SDS011;11520;51.198;4.468;2023-06-10T08:51:59;7.97;;;5.65;;
22705;SDS011;11520;51.198;4.468;2023-06-10T08:54:29;5.38;;;4.78;;
22705;SDS011;11520;51.198;4.468;2023-06-10T08:56:57;8.23;;;5.25;;
22705;SDS011;11520;51.198;4.468;2023-06-10T08:59:25;6.65;;;4.82;;
22705;SDS011;11520;51.198;4.468;2023-06-10T09:01:51;9.68;;;4.93;;
22705;SDS011;11520;51.198;4.468;2023-06-10T09:04:18;8.90;;;4.97;;
22705;SDS011;11520;51.198;4.468;2023-06-10T09:06:45;6.88;;;4.90;;
22705;SDS011;11520;51.198;4.468;2023-06-10T09:09:11;10.45;;;4.97;;
22705;SDS011;11520;51.198;4.468;2023-06-10T09:11:38;7.05;;;4.70;;
22705;SDS011;11520;51.198;4.468;2023-06-10T09:14:05;6.78;;;5.40;;
22705;SDS011;11520;51.198;4.468;2023-06-10T09:16:31;6.63;;;5.30;;
22705;SDS011;11520;51.198;4.468;2023-06-10T09:18:56;7.60;;;5.35;;
22705;SDS011;11520;51.198;4.468;2023-06-10T09:21:24;9.82;;;5.82;;
22705;SDS011;11520;51.198;4.468;2023-06-10T09:23:50;6.10;;;4.55;;
22705;SDS011;11520;51.198;4.468;2023-06-10T09:26:16;7.80;;;5.32;;
22705;SDS011;11520;51.198;4.468;2023-06-10T09:28:43;8.38;;;5.75;;
22705;SDS011;11520;51.198;4.468;2023-06-10T09:31:09;5.47;;;4.70;;
22705;SDS011;11520;51.198;4.468;2023-06-10T09:33:37;5.30;;;4.80;;
22705;SDS011;11520;51.198;4.468;2023-06-10T09:36:04;5.95;;;4.35;;
22705;SDS011;11520;51.198;4.468;2023-06-10T09:38:31;6.55;;;4.57;;
22705;SDS011;11520;51.198;4.468;2023-06-10T09:40:57;6.13;;;5.05;;
22705;SDS011;11520;51.198;4.468;2023-06-10T09:43:26;7.47;;;5.75;;
22705;SDS011;11520;51.198;4.468;2023-06-10T09:46:13;18.38;;;5.43;;
22705;SDS011;11520;51.198;4.468;2023-06-10T09:48:43;11.65;;;5.70;;
22705;SDS011;11520;51.198;4.468;2023-06-10T09:51:09;5.93;;;5.20;;
22705;SDS011;11520;51.198;4.468;2023-06-10T09:53:35;8.00;;;4.97;;
22705;SDS011;11520;51.198;4.468;2023-06-10T09:56:01;8.68;;;5.07;;
22705;SDS011;11520;51.198;4.468;2023-06-10T09:58:34;6.70;;;5.35;;
22705;SDS011;11520;51.198;4.468;2023-06-10T10:01:04;7.60;;;4.90;;
22705;SDS011;11520;51.198;4.468;2023-06-10T10:03:30;8.80;;;5.18;;
22705;SDS011;11520;51.198;4.468;2023-06-10T10:06:01;6.55;;;4.88;;
22705;SDS011;11520;51.198;4.468;2023-06-10T10:08:26;5.50;;;5.00;;
22705;SDS011;11520;51.198;4.468;2023-06-10T10:10:52;6.88;;;5.00;;
22705;SDS011;11520;51.198;4.468;2023-06-10T10:13:18;8.15;;;4.50;;
22705;SDS011;11520;51.198;4.468;2023-06-10T10:15:44;8.13;;;5.47;;
22705;SDS011;11520;51.198;4.468;2023-06-10T10:18:11;8.00;;;4.95;;
22705;SDS011;11520;51.198;4.468;2023-06-10T10:20:46;5.60;;;4.93;;
22705;SDS011;11520;51.198;4.468;2023-06-10T10:23:16;9.25;;;5.55;;
22705;SDS011;11520;51.198;4.468;2023-06-10T10:25:49;6.07;;;5.47;;
22705;SDS011;11520;51.198;4.468;2023-06-10T10:28:18;7.30;;;5.20;;
22705;SDS011;11520;51.198;4.468;2023-06-10T10:30:49;7.03;;;5.20;;
22705;SDS011;11520;51.198;4.468;2023-06-10T10:33:26;8.30;;;4.93;;
22705;SDS011;11520;51.198;4.468;2023-06-10T10:36:09;12.45;;;5.82;;
22705;SDS011;11520;51.198;4.468;2023-06-10T10:38:36;7.25;;;5.07;;
22705;SDS011;11520;51.198;4.468;2023-06-10T10:41:01;4.82;;;4.40;;
22705;SDS011;11520;51.198;4.468;2023-06-10T10:43:28;7.00;;;4.47;;
22705;SDS011;11520;51.198;4.468;2023-06-10T10:46:01;7.40;;;4.65;;
22705;SDS011;11520;51.198;4.468;2023-06-10T10:48:35;6.03;;;4.55;;
22705;SDS011;11520;51.198;4.468;2023-06-10T10:51:03;6.28;;;4.18;;
22705;SDS011;11520;51.198;4.468;2023-06-10T10:53:29;9.02;;;4.53;;
22705;SDS011;11520;51.198;4.468;2023-06-10T10:56:05;4.82;;;4.30;;
22705;SDS011;11520;51.198;4.468;2023-06-10T10:58:33;7.18;;;4.40;;
22705;SDS011;11520;51.198;4.468;2023-06-10T11:00:58;8.07;;;5.05;;
22705;SDS011;11520;51.198;4.468;2023-06-10T11:03:27;7.55;;;5.30;;
22705;SDS011;11520;51.198;4.468;2023-06-10T11:05:57;4.85;;;4.30;;
22705;SDS011;11520;51.198;4.468;2023-06-10T11:10:58;5.03;;;4.10;;
22705;SDS011;11520;51.198;4.468;2023-06-10T11:13:24;7.05;;;4.85;;
22705;SDS011;11520;51.198;4.468;2023-06-10T11:15:51;8.00;;;4.57;;
22705;SDS011;11520;51.198;4.468;2023-06-10T11:18:30;6.97;;;4.53;;
22705;SDS011;11520;51.198;4.468;2023-06-10T11:21:05;8.25;;;5.10;;
22705;SDS011;11520;51.198;4.468;2023-06-10T11:23:32;6.45;;;4.45;;
22705;SDS011;11520;51.198;4.468;2023-06-10T11:31:18;6.82;;;4.80;;
22705;SDS011;11520;51.198;4.468;2023-06-10T11:33:46;5.93;;;4.55;;
22705;SDS011;11520;51.198;4.468;2023-06-10T11:36:12;6.70;;;5.18;;
22705;SDS011;11520;51.198;4.468;2023-06-10T11:38:38;6.30;;;5.30;;
22705;SDS011;11520;51.198;4.468;2023-06-10T11:41:05;7.25;;;5.28;;
22705;SDS011;11520;51.198;4.468;2023-06-10T11:43:31;8.30;;;5.57;;
22705;SDS011;11520;51.198;4.468;2023-06-10T11:45:57;5.85;;;4.90;;
22705;SDS011;11520;51.198;4.468;2023-06-10T11:48:22;5.90;;;5.22;;
22705;SDS011;11520;51.198;4.468;2023-06-10T11:50:48;8.63;;;6.10;;
22705;SDS011;11520;51.198;4.468;2023-06-10T11:53:14;8.15;;;5.45;;
22705;SDS011;11520;51.198;4.468;2023-06-10T11:55:46;7.93;;;5.30;;
22705;SDS011;11520;51.198;4.468;2023-06-10T11:58:21;9.55;;;5.78;;
22705;SDS011;11520;51.198;4.468;2023-06-10T12:00:48;12.02;;;6.85;;
22705;SDS011;11520;51.198;4.468;2023-06-10T12:03:15;10.15;;;5.88;;
22705;SDS011;11520;51.198;4.468;2023-06-10T12:05:54;8.45;;;5.80;;
22705;SDS011;11520;51.198;4.468;2023-06-10T12:08:19;13.20;;;6.43;;
22705;SDS011;11520;51.198;4.468;2023-06-10T12:10:45;11.77;;;6.10;;
22705;SDS011;11520;51.198;4.468;2023-06-10T12:13:10;9.70;;;5.40;;
22705;SDS011;11520;51.198;4.468;2023-06-10T12:15:36;6.03;;;5.22;;
22705;SDS011;11520;51.198;4.468;2023-06-10T12:18:02;7.38;;;4.72;;
22705;SDS011;11520;51.198;4.468;2023-06-10T12:20:30;14.15;;;6.78;;
22705;SDS011;11520;51.198;4.468;2023-06-10T12:22:58;26.35;;;9.90;;
22705;SDS011;11520;51.198;4.468;2023-06-10T12:25:33;18.60;;;8.43;;
22705;SDS011;11520;51.198;4.468;2023-06-10T12:27:59;10.63;;;6.57;;
22705;SDS011;11520;51.198;4.468;2023-06-10T12:30:26;12.20;;;7.18;;
22705;SDS011;11520;51.198;4.468;2023-06-10T12:32:52;10.93;;;5.90;;
22705;SDS011;11520;51.198;4.468;2023-06-10T12:35:19;18.88;;;7.63;;
22705;SDS011;11520;51.198;4.468;2023-06-10T12:38:02;14.60;;;7.40;;
22705;SDS011;11520;51.198;4.468;2023-06-10T12:40:38;7.53;;;5.85;;
22705;SDS011;11520;51.198;4.468;2023-06-10T12:43:07;13.93;;;6.72;;
22705;SDS011;11520;51.198;4.468;2023-06-10T12:45:33;13.25;;;6.45;;
22705;SDS011;11520;51.198;4.468;2023-06-10T12:48:04;13.02;;;6.65;;
22705;SDS011;11520;51.198;4.468;2023-06-10T12:50:34;7.93;;;6.05;;
22705;SDS011;11520;51.198;4.468;2023-06-10T12:53:06;7.63;;;5.47;;
22705;SDS011;11520;51.198;4.468;2023-06-10T12:55:32;8.30;;;5.50;;
22705;SDS011;11520;51.198;4.468;2023-06-10T12:57:59;9.40;;;5.50;;
22705;SDS011;11520;51.198;4.468;2023-06-10T13:00:26;5.55;;;4.95;;
22705;SDS011;11520;51.198;4.468;2023-06-10T13:02:54;12.02;;;6.53;;
22705;SDS011;11520;51.198;4.468;2023-06-10T13:05:21;10.07;;;5.90;;
22705;SDS011;11520;51.198;4.468;2023-06-10T13:07:47;18.40;;;8.77;;
22705;SDS011;11520;51.198;4.468;2023-06-10T13:10:14;35.83;;;14.80;;
22705;SDS011;11520;51.198;4.468;2023-06-10T13:12:42;17.27;;;8.52;;
22705;SDS011;11520;51.198;4.468;2023-06-10T13:15:08;10.20;;;6.22;;
22705;SDS011;11520;51.198;4.468;2023-06-10T13:17:34;8.52;;;5.90;;
22705;SDS011;11520;51.198;4.468;2023-06-10T13:20:01;12.90;;;5.18;;
22705;SDS011;11520;51.198;4.468;2023-06-10T13:22:30;8.15;;;5.18;;
22705;SDS011;11520;51.198;4.468;2023-06-10T13:24:57;8.32;;;5.13;;
22705;SDS011;11520;51.198;4.468;2023-06-10T13:27:26;10.98;;;5.50;;
22705;SDS011;11520;51.198;4.468;2023-06-10T13:29:52;5.65;;;5.10;;
22705;SDS011;11520;51.198;4.468;2023-06-10T13:32:17;7.63;;;5.53;;
22705;SDS011;11520;51.198;4.468;2023-06-10T13:34:43;6.00;;;4.95;;
22705;SDS011;11520;51.198;4.468;2023-06-10T13:37:09;5.75;;;5.25;;
22705;SDS011;11520;51.198;4.468;2023-06-10T13:39:34;7.55;;;5.40;;
22705;SDS011;11520;51.198;4.468;2023-06-10T13:42:00;7.75;;;5.28;;
22705;SDS011;11520;51.198;4.468;2023-06-10T13:44:26;9.05;;;5.55;;
22705;SDS011;11520;51.198;4.468;2023-06-10T13:46:51;8.43;;;5.60;;
22705;SDS011;11520;51.198;4.468;2023-06-10T13:49:17;6.70;;;4.70;;
22705;SDS011;11520;51.198;4.468;2023-06-10T13:51:42;8.75;;;5.18;;
22705;SDS011;11520;51.198;4.468;2023-06-10T13:54:08;9.40;;;5.30;;
22705;SDS011;11520;51.198;4.468;2023-06-10T13:56:33;6.38;;;5.15;;
22705;SDS011;11520;51.198;4.468;2023-06-10T13:59:03;6.80;;;5.40;;
22705;SDS011;11520;51.198;4.468;2023-06-10T14:01:28;8.98;;;6.63;;
22705;SDS011;11520;51.198;4.468;2023-06-10T14:03:54;10.05;;;5.40;;
22705;SDS011;11520;51.198;4.468;2023-06-10T14:06:20;6.47;;;5.88;;
22705;SDS011;11520;51.198;4.468;2023-06-10T14:08:46;8.68;;;5.55;;
22705;SDS011;11520;51.198;4.468;2023-06-10T14:11:11;8.35;;;5.40;;
22705;SDS011;11520;51.198;4.468;2023-06-10T14:13:37;7.10;;;5.15;;
22705;SDS011;11520;51.198;4.468;2023-06-10T14:16:05;7.50;;;5.07;;
22705;SDS011;11520;51.198;4.468;2023-06-10T14:18:31;13.65;;;6.82;;
22705;SDS011;11520;51.198;4.468;2023-06-10T14:20:57;11.07;;;7.82;;
22705;SDS011;11520;51.198;4.468;2023-06-10T14:23:22;11.90;;;6.63;;
22705;SDS011;11520;51.198;4.468;2023-06-10T14:25:49;7.47;;;5.35;;
22705;SDS011;11520;51.198;4.468;2023-06-10T14:28:15;10.30;;;5.60;;
22705;SDS011;11520;51.198;4.468;2023-06-10T14:30:40;7.10;;;5.35;;
22705;SDS011;11520;51.198;4.468;2023-06-10T14:33:06;6.30;;;5.70;;
22705;SDS011;11520;51.198;4.468;2023-06-10T14:35:31;6.93;;;5.03;;
22705;SDS011;11520;51.198;4.468;2023-06-10T14:37:57;7.15;;;5.00;;
22705;SDS011;11520;51.198;4.468;2023-06-10T14:40:22;10.88;;;7.53;;
22705;SDS011;11520;51.198;4.468;2023-06-10T14:42:51;8.93;;;6.05;;
22705;SDS011;11520;51.198;4.468;2023-06-10T14:45:17;6.25;;;5.60;;
22705;SDS011;11520;51.198;4.468;2023-06-10T14:47:43;9.43;;;5.25;;
22705;SDS011;11520;51.198;4.468;2023-06-10T14:50:09;7.45;;;5.20;;
22705;SDS011;11520;51.198;4.468;2023-06-10T14:52:34;9.18;;;5.45;;